createdAt,value
2022-10-01T00:00:54.005Z,7.73
2022-10-01T00:03:22.876Z,9.87
2022-10-01T00:06:01.620Z,9.77
2022-10-01T00:08:30.236Z,9.90
2022-10-01T00:10:59.918Z,7.67
2022-10-01T00:13:28.344Z,9.40
2022-10-01T00:15:56.725Z,7.30
2022-10-01T00:18:25.465Z,6.97
2022-10-01T00:20:53.871Z,7.73
2022-10-01T00:23:23.577Z,7.67
2022-10-01T00:25:52.284Z,9.70
2022-10-01T00:28:20.857Z,11.60
2022-10-01T00:30:49.342Z,9.60
2022-10-01T00:33:17.484Z,8.53
2022-10-01T00:35:46.059Z,9.47
2022-10-01T00:38:15.341Z,15.63
2022-10-01T00:40:45.362Z,10.27
2022-10-01T00:43:23.626Z,12.43
2022-10-01T00:45:52.393Z,11.20
2022-10-01T00:48:20.511Z,18.87
2022-10-01T00:50:50.219Z,11.63
2022-10-01T00:53:20.462Z,10.07
2022-10-01T00:55:55.210Z,11.37
2022-10-01T00:58:25.380Z,11.43
2022-10-01T01:00:57.080Z,9.70
2022-10-01T01:03:25.964Z,10.03
2022-10-01T01:05:54.424Z,15.27
2022-10-01T01:08:22.727Z,13.00
2022-10-01T01:11:03.158Z,12.07
2022-10-01T01:13:38.704Z,13.13
2022-10-01T01:16:14.295Z,12.63
2022-10-01T01:18:44.315Z,15.83
2022-10-01T01:21:24.091Z,16.93
2022-10-01T01:24:13.165Z,21.60
2022-10-01T01:26:51.287Z,16.07
2022-10-01T01:29:26.825Z,13.77
2022-10-01T01:31:58.384Z,15.37
2022-10-01T01:34:29.646Z,17.70
2022-10-01T01:37:02.846Z,16.83
2022-10-01T01:39:34.630Z,15.43
2022-10-01T01:42:09.025Z,15.10
2022-10-01T01:44:43.136Z,19.10
2022-10-01T01:47:12.888Z,18.13
2022-10-01T01:49:42.948Z,15.43
2022-10-01T01:52:13.618Z,14.33
2022-10-01T01:54:44.458Z,15.50
2022-10-01T01:57:14.053Z,16.63
2022-10-01T01:59:44.066Z,16.17
2022-10-01T02:02:15.159Z,17.13
2022-10-01T02:04:46.435Z,17.77
2022-10-01T02:07:28.545Z,17.63
2022-10-01T02:10:05.801Z,20.40
2022-10-01T02:12:47.144Z,16.83
2022-10-01T02:15:23.777Z,16.37
2022-10-01T02:18:00.564Z,16.83
2022-10-01T02:20:34.908Z,18.33
2022-10-01T02:23:09.957Z,16.83
2022-10-01T02:25:44.276Z,15.93
2022-10-01T02:28:16.889Z,16.37
2022-10-01T02:30:48.645Z,17.00
2022-10-01T02:33:19.483Z,16.43
2022-10-01T02:35:51.177Z,17.07
2022-10-01T02:38:23.258Z,17.47
2022-10-01T02:40:56.241Z,15.47
2022-10-01T02:43:32.784Z,15.07
2022-10-01T02:46:08.923Z,15.53
2022-10-01T02:48:38.065Z,19.43
2022-10-01T02:51:26.293Z,17.93
2022-10-01T02:53:58.917Z,15.77
2022-10-01T02:56:48.876Z,15.40
2022-10-01T02:59:18.229Z,13.77
2022-10-01T03:01:48.562Z,15.03
2022-10-01T03:04:16.994Z,15.97
2022-10-01T03:06:47.211Z,16.03
2022-10-01T03:09:16.007Z,17.30
2022-10-01T03:11:45.114Z,15.20
2022-10-01T03:14:13.257Z,14.30
2022-10-01T03:16:41.719Z,12.97
2022-10-01T03:19:11.470Z,15.43
2022-10-01T03:21:39.847Z,13.00
2022-10-01T03:24:08.238Z,13.43
2022-10-01T03:26:36.911Z,11.27
2022-10-01T03:29:05.510Z,11.27
2022-10-01T03:31:34.434Z,11.87
2022-10-01T03:34:02.703Z,12.37
2022-10-01T03:36:32.581Z,14.47
2022-10-01T03:39:01.286Z,11.63
2022-10-01T03:41:29.461Z,13.43
2022-10-01T03:44:00.532Z,16.80
2022-10-01T03:46:29.093Z,18.67
2022-10-01T03:49:00.939Z,11.67
2022-10-01T03:51:29.506Z,11.80
2022-10-01T03:54:00.007Z,11.23
2022-10-01T03:56:28.252Z,13.77
2022-10-01T03:58:56.711Z,14.27
2022-10-01T04:01:26.013Z,12.17
2022-10-01T04:03:54.530Z,13.90
2022-10-01T04:06:22.603Z,12.53
2022-10-01T04:08:51.063Z,14.13
2022-10-01T04:11:21.822Z,14.83
2022-10-01T04:13:50.244Z,12.43
2022-10-01T04:16:18.793Z,12.47
2022-10-01T04:18:47.157Z,12.27
2022-10-01T04:21:15.601Z,13.37
2022-10-01T04:23:44.022Z,10.23
2022-10-01T04:26:12.466Z,9.80
2022-10-01T04:28:45.146Z,12.17
2022-10-01T04:31:26.023Z,11.60
2022-10-01T04:33:55.154Z,13.60
2022-10-01T04:36:24.483Z,14.50
2022-10-01T04:38:58.054Z,13.07
2022-10-01T04:41:30.276Z,11.40
2022-10-01T04:44:00.606Z,17.20
2022-10-01T04:46:30.186Z,12.23
2022-10-01T04:48:58.956Z,11.67
2022-10-01T04:51:27.321Z,10.03
2022-10-01T04:53:55.813Z,11.27
2022-10-01T04:56:24.361Z,9.50
2022-10-01T04:58:52.955Z,11.60
2022-10-01T05:01:23.126Z,9.87
2022-10-01T05:03:51.705Z,11.63
2022-10-01T05:06:19.909Z,9.10
2022-10-01T05:08:49.611Z,9.37
2022-10-01T05:11:17.695Z,10.07
2022-10-01T05:13:46.594Z,8.97
2022-10-01T05:16:14.997Z,9.77
2022-10-01T05:18:45.187Z,8.20
2022-10-01T05:21:15.602Z,8.63
2022-10-01T05:23:44.500Z,8.33
2022-10-01T05:26:12.674Z,8.63
2022-10-01T05:28:44.646Z,7.70
2022-10-01T05:31:13.365Z,7.13
2022-10-01T05:33:42.552Z,7.57
2022-10-01T05:36:12.634Z,6.80
2022-10-01T05:38:42.386Z,9.60
2022-10-01T05:41:11.112Z,7.83
2022-10-01T05:43:40.336Z,7.23
2022-10-01T05:46:10.575Z,7.43
2022-10-01T05:48:39.357Z,7.97
2022-10-01T05:51:08.600Z,7.87
2022-10-01T05:53:40.093Z,7.53
2022-10-01T05:56:09.291Z,8.10
2022-10-01T05:58:38.051Z,6.97
2022-10-01T06:01:06.401Z,8.27
2022-10-01T06:03:34.999Z,6.93
2022-10-01T06:06:05.698Z,7.80
2022-10-01T06:08:35.399Z,8.53
2022-10-01T06:11:05.418Z,10.40
2022-10-01T06:13:33.665Z,9.23
2022-10-01T06:16:01.969Z,8.53
2022-10-01T06:18:30.146Z,6.43
2022-10-01T06:21:01.242Z,6.73
2022-10-01T06:23:29.751Z,6.67
2022-10-01T06:25:58.365Z,9.83
2022-10-01T06:28:28.485Z,9.13
2022-10-01T06:30:57.065Z,7.17
2022-10-01T06:33:26.065Z,9.93
2022-10-01T06:35:54.720Z,9.07
2022-10-01T06:38:25.494Z,7.67
2022-10-01T06:40:55.566Z,7.37
2022-10-01T06:43:25.966Z,6.97
2022-10-01T06:45:57.324Z,7.87
2022-10-01T06:48:29.254Z,8.13
2022-10-01T06:50:58.270Z,6.73
2022-10-01T06:53:25.688Z,7.93
2022-10-01T06:56:03.235Z,5.77
2022-10-01T06:58:32.929Z,8.50
2022-10-01T07:01:07.799Z,6.50
2022-10-01T07:03:36.836Z,7.30
2022-10-01T07:06:08.201Z,7.10
2022-10-01T07:08:36.638Z,5.97
2022-10-01T07:11:05.528Z,6.40
2022-10-01T07:13:33.930Z,6.37
2022-10-01T07:16:06.063Z,7.37
2022-10-01T07:18:34.849Z,8.60
2022-10-01T07:21:03.109Z,5.77
2022-10-01T07:23:31.495Z,4.93
2022-10-01T07:26:00.107Z,7.23
2022-10-01T07:28:28.687Z,5.17
2022-10-01T07:31:05.925Z,5.53
2022-10-01T07:34:12.508Z,4.97
2022-10-01T07:36:45.769Z,4.23
2022-10-01T07:39:14.813Z,4.13
2022-10-01T07:41:44.125Z,4.93
2022-10-01T07:44:14.601Z,7.10
2022-10-01T07:46:42.981Z,3.97
2022-10-01T07:49:13.026Z,5.30
2022-10-01T07:51:43.493Z,4.30
2022-10-01T07:54:12.091Z,3.97
2022-10-01T07:56:41.066Z,3.70
2022-10-01T07:59:10.758Z,4.03
2022-10-01T08:01:39.277Z,4.93
2022-10-01T08:04:21.526Z,4.23
2022-10-01T08:06:51.768Z,5.13
2022-10-01T08:09:20.200Z,4.23
2022-10-01T08:11:49.140Z,4.43
2022-10-01T08:14:20.403Z,2.97
2022-10-01T08:16:52.556Z,3.17
2022-10-01T08:19:21.105Z,2.27
2022-10-01T08:21:50.948Z,4.30
2022-10-01T08:24:20.717Z,3.13
2022-10-01T08:26:53.390Z,2.20
2022-10-01T08:29:22.217Z,4.20
2022-10-01T08:31:51.065Z,2.13
2022-10-01T08:34:19.717Z,1.87
2022-10-01T08:36:53.527Z,1.97
2022-10-01T08:39:21.944Z,3.03
2022-10-01T08:42:02.176Z,1.70
2022-10-01T08:44:37.575Z,1.90
2022-10-01T08:47:11.893Z,1.83
2022-10-01T08:49:45.273Z,2.07
2022-10-01T08:52:22.163Z,2.07
2022-10-01T08:54:57.735Z,1.73
2022-10-01T09:00:52.709Z,1.47
2022-10-01T09:03:21.332Z,2.30
2022-10-01T09:06:00.467Z,2.30
2022-10-01T09:08:47.013Z,12.43
2022-10-01T09:11:29.547Z,5.63
2022-10-01T09:14:09.599Z,2.07
2022-10-01T09:16:43.979Z,1.80
2022-10-01T09:19:31.588Z,2.13
2022-10-01T09:22:03.384Z,2.37
2022-10-01T09:24:42.536Z,1.40
2022-10-01T09:27:16.064Z,6.07
2022-10-01T09:29:51.642Z,1.60
2022-10-01T09:32:24.427Z,1.60
2022-10-01T09:34:53.771Z,1.53
2022-10-01T09:37:30.213Z,1.40
2022-10-01T09:40:16.041Z,3.40
2022-10-01T09:42:45.374Z,1.63
2022-10-01T09:45:15.152Z,3.43
2022-10-01T09:47:44.904Z,2.57
2022-10-01T09:50:18.137Z,2.90
2022-10-01T09:52:49.852Z,2.40
2022-10-01T09:55:31.678Z,2.33
2022-10-01T09:58:04.804Z,1.60
2022-10-01T10:00:34.032Z,2.07
2022-10-01T10:03:02.407Z,1.70
2022-10-01T10:05:40.698Z,3.93
2022-10-01T10:08:14.689Z,1.67
2022-10-01T10:10:52.367Z,1.70
2022-10-01T10:13:26.829Z,1.70
2022-10-01T10:15:58.666Z,1.37
2022-10-01T10:18:34.615Z,1.83
2022-10-01T10:21:07.527Z,1.90
2022-10-01T10:23:35.919Z,1.90
2022-10-01T10:26:07.589Z,2.50
2022-10-01T10:28:44.163Z,2.90
2022-10-01T10:31:17.388Z,1.87
2022-10-01T10:33:51.213Z,9.43
2022-10-01T10:36:21.101Z,5.43
2022-10-01T10:38:52.417Z,3.27
2022-10-01T10:41:26.478Z,2.53
2022-10-01T10:43:59.116Z,2.53
2022-10-01T10:46:31.943Z,2.03
2022-10-01T10:49:06.414Z,3.63
2022-10-01T10:51:54.788Z,3.57
2022-10-01T10:54:31.839Z,3.90
2022-10-01T10:57:06.020Z,6.17
2022-10-01T10:59:36.911Z,6.77
2022-10-01T11:02:16.026Z,7.93
2022-10-01T11:04:47.035Z,12.40
2022-10-01T11:07:22.742Z,10.90
2022-10-01T11:10:12.434Z,15.60
2022-10-01T11:12:57.322Z,10.23
2022-10-01T11:15:46.353Z,9.47
2022-10-01T11:18:26.799Z,7.03
2022-10-01T11:21:09.806Z,10.43
2022-10-01T11:24:08.716Z,2.63
2022-10-01T11:26:45.946Z,4.07
2022-10-01T11:29:27.318Z,2.87
2022-10-01T11:32:04.651Z,3.17
2022-10-01T11:35:08.236Z,5.67
2022-10-01T11:37:48.694Z,4.77
2022-10-01T11:40:19.725Z,2.97
2022-10-01T11:42:48.819Z,2.67
2022-10-01T11:45:23.539Z,4.27
2022-10-01T11:47:55.832Z,5.13
2022-10-01T11:50:26.830Z,2.60
2022-10-01T11:52:59.420Z,4.03
2022-10-01T11:55:49.301Z,7.03
2022-10-01T11:58:43.152Z,3.40
2022-10-01T12:01:19.353Z,4.37
2022-10-01T12:03:52.230Z,4.07
2022-10-01T12:06:27.570Z,2.60
2022-10-01T12:09:03.834Z,2.37
2022-10-01T12:11:37.006Z,5.60
2022-10-01T12:14:10.715Z,3.10
2022-10-01T12:16:46.318Z,4.83
2022-10-01T12:19:18.310Z,3.67
2022-10-01T12:21:52.115Z,2.77
2022-10-01T12:24:23.695Z,2.73
2022-10-01T12:27:05.015Z,3.50
2022-10-01T12:32:47.527Z,3.50
2022-10-01T12:35:29.730Z,2.57
2022-10-01T12:38:08.800Z,5.30
2022-10-01T12:40:42.605Z,2.17
2022-10-01T12:43:47.698Z,3.23
2022-10-01T12:46:28.834Z,5.10
2022-10-01T12:49:05.272Z,2.80
2022-10-01T12:51:40.632Z,4.80
2022-10-01T12:54:26.192Z,2.87
2022-10-01T12:57:04.298Z,3.97
2022-10-01T12:59:53.568Z,3.07
2022-10-01T13:02:41.949Z,5.23
2022-10-01T13:05:22.108Z,2.93
2022-10-01T13:08:00.003Z,5.03
2022-10-01T13:10:45.818Z,2.83
2022-10-01T13:13:18.823Z,2.53
2022-10-01T13:15:49.644Z,2.13
2022-10-01T13:18:25.450Z,2.23
2022-10-01T13:21:02.032Z,3.60
2022-10-01T13:23:33.296Z,3.23
2022-10-01T13:26:08.853Z,5.37
2022-10-01T13:28:59.608Z,3.83
2022-10-01T13:31:40.730Z,2.63
2022-10-01T13:34:37.033Z,3.43
2022-10-01T13:37:13.783Z,4.77
2022-10-01T13:39:45.172Z,1.97
2022-10-01T13:42:26.215Z,3.23
2022-10-01T13:44:55.910Z,2.87
2022-10-01T13:47:25.238Z,2.37
2022-10-01T13:49:58.951Z,4.33
2022-10-01T13:52:30.262Z,4.43
2022-10-01T13:54:59.148Z,1.83
2022-10-01T13:57:32.154Z,2.00
2022-10-01T14:00:02.588Z,2.63
2022-10-01T14:02:36.760Z,3.47
2022-10-01T14:05:19.902Z,2.10
2022-10-01T14:07:54.589Z,2.73
2022-10-01T14:10:25.285Z,2.43
2022-10-01T14:13:11.562Z,1.90
2022-10-01T14:16:00.166Z,3.10
2022-10-01T14:18:37.606Z,1.50
2022-10-01T14:21:19.020Z,2.63
2022-10-01T14:23:59.957Z,4.37
2022-10-01T14:26:35.106Z,1.87
2022-10-01T14:29:15.009Z,2.90
2022-10-01T14:31:51.277Z,2.30
2022-10-01T14:34:36.351Z,4.47
2022-10-01T14:37:07.949Z,2.70
2022-10-01T14:39:38.619Z,1.80
2022-10-01T14:42:16.458Z,2.70
2022-10-01T14:44:46.613Z,1.97
2022-10-01T14:47:16.037Z,3.37
2022-10-01T14:49:44.509Z,2.77
2022-10-01T14:52:21.538Z,3.23
2022-10-01T14:55:00.666Z,1.20
2022-10-01T14:57:31.408Z,1.70
2022-10-01T15:00:02.882Z,1.97
2022-10-01T15:02:31.154Z,2.53
2022-10-01T15:04:59.876Z,2.03
2022-10-01T15:07:33.976Z,2.50
2022-10-01T15:10:10.432Z,2.20
2022-10-01T15:12:42.443Z,1.60
2022-10-01T15:15:20.028Z,2.40
2022-10-01T15:17:48.699Z,1.87
2022-10-01T15:20:18.419Z,2.07
2022-10-01T15:22:49.297Z,1.37
2022-10-01T15:25:22.833Z,1.73
2022-10-01T15:27:54.167Z,2.73
2022-10-01T15:30:23.084Z,1.50
2022-10-01T15:32:52.024Z,2.07
2022-10-01T15:35:22.725Z,2.03
2022-10-01T15:37:55.447Z,4.13
2022-10-01T15:40:30.056Z,2.30
2022-10-01T15:43:23.944Z,1.40
2022-10-01T15:46:12.384Z,2.17
2022-10-01T15:48:40.586Z,1.67
2022-10-01T15:51:17.852Z,1.83
2022-10-01T15:53:47.028Z,1.70
2022-10-01T15:56:19.032Z,2.57
2022-10-01T15:58:52.013Z,2.23
2022-10-01T16:01:23.469Z,2.23
2022-10-01T16:03:58.111Z,2.07
2022-10-01T16:06:29.457Z,2.57
2022-10-01T16:09:05.208Z,1.93
2022-10-01T16:11:55.763Z,3.00
2022-10-01T16:14:32.738Z,2.33
2022-10-01T16:17:34.355Z,3.87
2022-10-01T16:20:04.459Z,1.73
2022-10-01T16:22:35.292Z,1.93
2022-10-01T16:25:07.206Z,1.57
2022-10-01T16:27:46.862Z,2.30
2022-10-01T16:30:23.248Z,1.30
2022-10-01T16:32:52.247Z,1.53
2022-10-01T16:35:23.272Z,1.40
2022-10-01T16:37:55.265Z,2.97
2022-10-01T16:40:24.518Z,2.40
2022-10-01T16:42:55.577Z,1.80
2022-10-01T16:45:25.413Z,2.27
2022-10-01T16:48:00.575Z,2.17
2022-10-01T16:50:28.728Z,2.30
2022-10-01T16:53:01.160Z,1.97
2022-10-01T16:55:35.821Z,1.80
2022-10-01T16:58:06.837Z,1.30
2022-10-01T17:00:37.236Z,1.60
2022-10-01T17:03:08.971Z,3.03
2022-10-01T17:05:38.740Z,1.40
2022-10-01T17:08:11.194Z,2.43
2022-10-01T17:10:42.743Z,1.83
2022-10-01T17:13:13.220Z,1.93
2022-10-01T17:15:41.919Z,2.20
2022-10-01T17:18:10.467Z,3.13
2022-10-01T17:20:39.310Z,2.20
2022-10-01T17:23:08.065Z,1.43
2022-10-01T17:25:38.423Z,1.30
2022-10-01T17:28:09.267Z,1.17
2022-10-01T17:30:43.790Z,2.40
2022-10-01T17:33:13.729Z,1.63
2022-10-01T17:35:43.701Z,2.77
2022-10-01T17:38:12.945Z,1.27
2022-10-01T17:40:41.917Z,1.30
2022-10-01T17:43:12.253Z,1.30
2022-10-01T17:45:42.224Z,1.40
2022-10-01T17:48:10.902Z,1.30
2022-10-01T17:50:44.677Z,1.50
2022-10-01T17:53:13.530Z,1.23
2022-10-01T17:55:42.183Z,1.80
2022-10-01T17:58:11.644Z,1.20
2022-10-01T18:00:43.369Z,1.27
2022-10-01T18:03:11.778Z,1.40
2022-10-01T18:05:41.572Z,1.27
2022-10-01T18:08:09.858Z,1.60
2022-10-01T18:10:38.180Z,1.27
2022-10-01T18:13:06.128Z,1.13
2022-10-01T18:15:34.419Z,3.00
2022-10-01T18:20:52.408Z,2.90
2022-10-01T18:23:21.240Z,1.53
2022-10-01T18:25:49.666Z,1.10
2022-10-01T18:28:19.095Z,1.53
2022-10-01T18:30:47.759Z,1.30
2022-10-01T18:33:17.522Z,1.90
2022-10-01T18:35:46.158Z,13.73
2022-10-01T18:38:21.894Z,1.20
2022-10-01T18:40:56.123Z,1.30
2022-10-01T18:43:26.920Z,1.43
2022-10-01T18:46:09.020Z,1.30
2022-10-01T18:49:10.173Z,4.20
2022-10-01T18:51:53.620Z,1.30
2022-10-01T18:54:41.318Z,1.50
2022-10-01T18:57:21.373Z,1.20
2022-10-01T19:00:04.287Z,0.97
2022-10-01T19:03:03.331Z,1.30
2022-10-01T19:05:57.095Z,1.60
2022-10-01T19:08:40.261Z,1.20
2022-10-01T19:11:18.269Z,2.23
2022-10-01T19:13:55.112Z,1.97
2022-10-01T19:16:39.178Z,1.60
2022-10-01T19:19:25.015Z,1.20
2022-10-01T19:22:01.407Z,1.80
2022-10-01T19:24:48.761Z,1.57
2022-10-01T19:27:36.018Z,1.47
2022-10-01T19:30:08.648Z,1.50
2022-10-01T19:32:42.310Z,1.70
2022-10-01T19:35:19.252Z,1.07
2022-10-01T19:37:52.529Z,3.50
2022-10-01T19:40:32.044Z,1.10
2022-10-01T19:43:08.387Z,1.67
2022-10-01T19:45:45.630Z,1.20
2022-10-01T19:48:20.565Z,1.67
2022-10-01T19:50:54.053Z,0.97
2022-10-01T19:53:28.131Z,2.47
2022-10-01T19:55:56.760Z,2.57
2022-10-01T19:58:25.354Z,1.57
2022-10-01T20:00:57.310Z,1.40
2022-10-01T20:03:35.581Z,1.00
2022-10-01T20:06:08.787Z,1.40
2022-10-01T20:08:43.116Z,1.40
2022-10-01T20:11:15.088Z,1.53
2022-10-01T20:13:57.532Z,1.20
2022-10-01T20:16:30.977Z,1.30
2022-10-01T20:19:11.168Z,1.77
2022-10-01T20:21:56.746Z,0.90
2022-10-01T20:24:42.493Z,1.90
2022-10-01T20:27:21.202Z,1.90
2022-10-01T20:29:55.087Z,0.87
2022-10-01T20:32:31.541Z,1.40
2022-10-01T20:35:13.180Z,1.23
2022-10-01T20:38:04.066Z,2.43
2022-10-01T20:40:40.241Z,3.07
2022-10-01T20:43:12.257Z,1.00
2022-10-01T20:45:41.978Z,1.70
2022-10-01T20:48:15.016Z,1.60
2022-10-01T20:50:46.732Z,1.27
2022-10-01T20:53:22.382Z,1.83
2022-10-01T20:55:57.951Z,1.83
2022-10-01T20:58:31.446Z,1.10
2022-10-01T21:01:05.475Z,1.33
2022-10-01T21:03:36.609Z,1.00
2022-10-01T21:06:08.570Z,3.80
2022-10-01T21:08:49.963Z,2.27
2022-10-01T21:11:25.943Z,1.30
2022-10-01T21:13:59.989Z,1.67
2022-10-01T21:16:56.462Z,0.63
2022-10-01T21:19:39.460Z,2.30
2022-10-01T21:22:20.102Z,1.10
2022-10-01T21:24:59.289Z,1.33
2022-10-01T21:27:50.871Z,1.57
2022-10-01T21:30:20.719Z,1.20
2022-10-01T21:33:11.578Z,1.10
2022-10-01T21:35:48.819Z,1.20
2022-10-01T21:38:28.387Z,2.03
2022-10-01T21:41:13.176Z,0.83
2022-10-01T21:43:57.039Z,1.03
2022-10-01T21:46:34.913Z,1.03
2022-10-01T21:49:10.680Z,3.53
2022-10-01T21:51:55.257Z,0.90
2022-10-01T21:54:49.831Z,1.10
2022-10-01T21:57:38.391Z,1.80
2022-10-01T22:00:18.247Z,1.10
2022-10-01T22:03:00.044Z,1.07
2022-10-01T22:05:37.419Z,2.00
2022-10-01T22:08:23.571Z,2.07
2022-10-01T22:10:55.688Z,1.70
2022-10-01T22:13:28.568Z,1.03
2022-10-01T22:16:02.917Z,1.20
2022-10-01T22:18:37.792Z,2.83
2022-10-01T22:21:09.550Z,0.77
2022-10-01T22:23:40.957Z,1.23
2022-10-01T22:26:15.317Z,2.40
2022-10-01T22:28:47.273Z,3.53
2022-10-01T22:31:23.680Z,2.10
2022-10-01T22:33:57.097Z,3.37
2022-10-01T22:36:30.798Z,0.90
2022-10-01T22:39:04.046Z,0.93
2022-10-01T22:41:37.486Z,0.90
2022-10-01T22:44:14.352Z,2.70
2022-10-01T22:47:24.922Z,0.90
2022-10-01T22:50:10.386Z,3.50
2022-10-01T22:52:47.231Z,2.13
2022-10-01T22:55:27.394Z,2.37
2022-10-01T22:58:32.820Z,3.00
2022-10-01T23:01:10.216Z,0.80
2022-10-01T23:03:50.993Z,1.20
2022-10-01T23:06:28.751Z,3.70
2022-10-01T23:09:04.669Z,2.60
2022-10-01T23:11:42.044Z,1.40
2022-10-01T23:14:18.876Z,2.60
2022-10-01T23:16:53.314Z,1.03
2022-10-01T23:19:35.426Z,4.23
2022-10-01T23:22:11.448Z,1.40
2022-10-01T23:24:54.504Z,1.33
2022-10-01T23:27:31.869Z,2.10
2022-10-01T23:30:09.195Z,2.30
2022-10-01T23:33:04.501Z,1.47
2022-10-01T23:35:42.789Z,2.30
2022-10-01T23:38:27.969Z,2.80
2022-10-01T23:40:59.256Z,2.97
2022-10-01T23:43:35.150Z,2.67
2022-10-01T23:46:08.656Z,2.03
2022-10-01T23:48:43.916Z,1.63
2022-10-01T23:51:20.137Z,1.27
2022-10-01T23:53:54.241Z,0.90
2022-10-01T23:56:43.825Z,1.23
2022-10-01T23:59:15.620Z,1.93
